createdAt,value
2024-01-08T00:01:16.036Z,70.44
2024-01-08T00:03:49.376Z,70.61
2024-01-08T00:06:19.497Z,70.28
2024-01-08T00:08:47.678Z,70.29
2024-01-08T00:11:15.940Z,70.10
2024-01-08T00:13:45.050Z,70.72
2024-01-08T00:16:15.536Z,70.81
2024-01-08T00:18:45.191Z,70.99
2024-01-08T00:21:13.486Z,70.90
2024-01-08T00:23:41.532Z,70.60
2024-01-08T00:26:09.797Z,70.67
2024-01-08T00:28:38.018Z,70.96
2024-01-08T00:31:06.188Z,71.23
2024-01-08T00:33:34.573Z,71.08
2024-01-08T00:36:03.333Z,70.59
2024-01-08T00:38:31.553Z,70.40
2024-01-08T00:40:59.754Z,70.81
2024-01-08T00:43:27.842Z,70.58
2024-01-08T00:45:55.921Z,70.59
2024-01-08T00:48:24.249Z,70.36
2024-01-08T00:50:53.746Z,69.96
2024-01-08T00:53:22.066Z,70.04
2024-01-08T00:55:50.572Z,70.14
2024-01-08T00:58:18.761Z,70.26
2024-01-08T01:00:46.887Z,70.00
2024-01-08T01:03:15.216Z,70.33
2024-01-08T01:05:43.531Z,70.22
2024-01-08T01:08:12.895Z,70.37
2024-01-08T01:10:41.131Z,70.34
2024-01-08T01:13:09.290Z,70.28
2024-01-08T01:15:37.940Z,70.05
2024-01-08T01:18:06.163Z,70.67
2024-01-08T01:20:34.422Z,70.67
2024-01-08T01:23:02.759Z,70.71
2024-01-08T01:25:30.972Z,70.63
2024-01-08T01:27:58.993Z,70.80
2024-01-08T01:30:27.634Z,70.72
2024-01-08T01:32:55.879Z,70.35
2024-01-08T01:35:24.351Z,70.47
2024-01-08T01:37:52.587Z,69.97
2024-01-08T01:40:21.374Z,69.52
2024-01-08T01:42:50.911Z,69.58
2024-01-08T01:45:19.072Z,69.25
2024-01-08T01:47:47.571Z,68.66
2024-01-08T01:50:16.308Z,69.33
2024-01-08T01:52:44.646Z,69.70
2024-01-08T01:55:13.474Z,69.73
2024-01-08T01:57:44.219Z,70.16
2024-01-08T02:00:13.124Z,69.83
2024-01-08T02:02:44.375Z,69.37
2024-01-08T02:05:14.015Z,69.09
2024-01-08T02:07:43.190Z,69.26
2024-01-08T02:10:11.336Z,69.23
2024-01-08T02:12:39.375Z,69.26
2024-01-08T02:15:07.831Z,69.39
2024-01-08T02:17:36.119Z,69.09
2024-01-08T02:20:04.833Z,69.51
2024-01-08T02:22:37.306Z,69.55
2024-01-08T02:25:05.859Z,69.23
2024-01-08T02:27:33.890Z,69.77
2024-01-08T02:30:02.145Z,69.50
2024-01-08T02:32:30.552Z,69.27
2024-01-08T02:34:58.903Z,69.74
2024-01-08T02:37:27.195Z,69.65
2024-01-08T02:39:55.258Z,69.64
2024-01-08T02:42:23.674Z,69.92
2024-01-08T02:44:52.035Z,69.90
2024-01-08T02:47:20.188Z,69.96
2024-01-08T02:49:48.237Z,69.69
2024-01-08T02:52:16.479Z,69.23
2024-01-08T02:54:44.632Z,69.44
2024-01-08T02:57:12.945Z,69.40
2024-01-08T02:59:40.976Z,69.57
2024-01-08T03:02:09.019Z,69.95
2024-01-08T03:04:37.157Z,69.74
2024-01-08T03:07:05.316Z,70.28
2024-01-08T03:09:33.499Z,70.24
2024-01-08T03:12:01.581Z,70.13
2024-01-08T03:14:29.954Z,70.26
2024-01-08T03:16:58.301Z,70.36
2024-01-08T03:19:26.996Z,70.18
2024-01-08T03:21:55.119Z,70.42
2024-01-08T03:24:23.216Z,70.64
2024-01-08T03:26:51.260Z,70.59
2024-01-08T03:29:19.471Z,71.04
2024-01-08T03:31:47.589Z,70.66
2024-01-08T03:34:16.083Z,70.96
2024-01-08T03:36:48.184Z,71.15
2024-01-08T03:39:17.523Z,71.00
2024-01-08T03:41:45.815Z,70.88
2024-01-08T03:44:15.603Z,70.73
2024-01-08T03:46:43.952Z,70.41
2024-01-08T03:49:13.237Z,70.21
2024-01-08T03:51:41.578Z,70.74
2024-01-08T03:54:09.930Z,70.81
2024-01-08T03:56:38.327Z,71.24
2024-01-08T03:59:06.615Z,71.18
2024-01-08T04:01:34.815Z,71.11
2024-01-08T04:04:02.892Z,71.37
2024-01-08T04:06:31.060Z,71.77
2024-01-08T04:08:59.236Z,71.48
2024-01-08T04:11:27.494Z,70.96
2024-01-08T04:13:55.609Z,71.12
2024-01-08T04:16:23.748Z,70.84
2024-01-08T04:18:52.170Z,70.82
2024-01-08T04:21:20.411Z,70.93
2024-01-08T04:23:48.452Z,70.38
2024-01-08T04:26:17.795Z,70.81
2024-01-08T04:28:46.209Z,70.18
2024-01-08T04:31:19.398Z,70.46
2024-01-08T04:33:48.297Z,70.24
2024-01-08T04:36:17.326Z,70.47
2024-01-08T04:38:48.132Z,70.24
2024-01-08T04:41:20.870Z,70.27
2024-01-08T04:43:50.211Z,70.28
2024-01-08T04:46:18.606Z,69.71
2024-01-08T04:48:46.901Z,70.13
2024-01-08T04:51:25.538Z,70.50
2024-01-08T04:53:53.991Z,70.59
2024-01-08T04:56:24.470Z,70.43
2024-01-08T04:58:54.303Z,69.98
2024-01-08T05:01:23.697Z,70.15
2024-01-08T05:03:52.151Z,70.07
2024-01-08T05:06:20.598Z,70.35
2024-01-08T05:08:49.274Z,70.27
2024-01-08T05:11:17.678Z,70.49
2024-01-08T05:13:45.876Z,70.62
2024-01-08T05:16:14.263Z,70.76
2024-01-08T05:18:42.444Z,70.76
2024-01-08T05:21:15.126Z,70.61
2024-01-08T05:23:43.695Z,70.48
2024-01-08T05:26:12.113Z,70.31
2024-01-08T05:28:40.231Z,69.97
2024-01-08T05:31:09.084Z,70.19
2024-01-08T05:33:37.476Z,70.50
2024-01-08T05:36:07.485Z,70.25
2024-01-08T05:38:36.973Z,70.35
2024-01-08T05:41:06.548Z,70.47
2024-01-08T05:43:39.996Z,70.59
2024-01-08T05:46:10.221Z,70.50
2024-01-08T05:48:50.760Z,70.66
2024-01-08T05:51:19.186Z,70.88
2024-01-08T05:53:49.788Z,70.92
2024-01-08T05:56:19.133Z,70.48
2024-01-08T05:58:58.829Z,70.66
2024-01-08T06:01:29.892Z,71.18
2024-01-08T06:04:02.010Z,71.08
2024-01-08T06:06:42.329Z,71.51
2024-01-08T06:09:34.436Z,71.69
2024-01-08T06:12:13.149Z,71.68
2024-01-08T06:14:43.232Z,71.55
2024-01-08T06:17:21.842Z,71.71
2024-01-08T06:19:56.454Z,71.67
2024-01-08T06:22:31.668Z,71.59
2024-01-08T06:25:08.825Z,71.58
2024-01-08T06:27:41.341Z,71.03
2024-01-08T06:30:11.436Z,71.10
2024-01-08T06:32:41.414Z,71.29
2024-01-08T06:35:10.588Z,71.35
2024-01-08T06:37:42.039Z,71.36
2024-01-08T06:40:12.721Z,71.05
2024-01-08T06:42:52.674Z,71.07
2024-01-08T06:45:29.467Z,69.55
2024-01-08T06:48:14.234Z,69.24
2024-01-08T06:50:46.972Z,68.66
2024-01-08T06:53:16.055Z,69.27
2024-01-08T06:55:50.276Z,69.69
2024-01-08T06:58:53.522Z,69.78
2024-01-08T07:01:33.082Z,70.02
2024-01-08T07:04:13.585Z,70.34
2024-01-08T07:06:42.299Z,70.20
2024-01-08T07:09:26.536Z,69.70
2024-01-08T07:12:21.901Z,69.93
2024-01-08T07:14:56.669Z,69.97
2024-01-08T07:17:38.068Z,69.93
2024-01-08T07:20:19.516Z,69.38
2024-01-08T07:22:53.141Z,69.07
2024-01-08T07:25:27.603Z,69.35
2024-01-08T07:28:00.337Z,69.32
2024-01-08T07:30:29.017Z,68.93
2024-01-08T07:33:03.373Z,69.03
2024-01-08T07:35:40.695Z,68.83
2024-01-08T07:38:10.443Z,67.44
2024-01-08T07:40:44.519Z,67.25
2024-01-08T07:43:40.207Z,66.85
2024-01-08T07:46:11.877Z,64.50
2024-01-08T07:48:40.752Z,64.60
2024-01-08T07:51:12.842Z,64.74
2024-01-08T08:20:52.329Z,65.06
2024-01-08T08:23:49.629Z,66.86
2024-01-08T08:27:16.815Z,65.65
2024-01-08T08:31:19.018Z,66.06
2024-01-08T08:34:18.624Z,66.10
2024-01-08T08:40:40.171Z,67.88
2024-01-08T08:43:26.147Z,66.09
2024-01-08T08:46:07.044Z,67.58
2024-01-08T08:48:54.315Z,67.19
2024-01-08T08:51:25.784Z,67.58
2024-01-08T09:03:05.937Z,67.01
2024-01-08T09:06:45.827Z,67.55
2024-01-08T09:10:56.010Z,67.74
2024-01-08T09:14:49.630Z,67.21
2024-01-08T09:17:36.621Z,66.97
2024-01-08T09:20:25.274Z,67.40
2024-01-08T09:22:59.372Z,67.50
2024-01-08T09:25:37.850Z,66.83
2024-01-08T09:28:08.217Z,66.37
2024-01-08T09:30:36.545Z,66.02
2024-01-08T09:33:09.703Z,66.03
2024-01-08T09:35:38.164Z,65.83
2024-01-08T09:38:06.751Z,66.31
2024-01-08T09:40:38.638Z,66.78
2024-01-08T09:43:09.827Z,66.97
2024-01-08T09:45:50.952Z,67.47
2024-01-08T09:48:22.507Z,67.54
2024-01-08T09:51:03.705Z,67.69
2024-01-08T09:53:39.091Z,67.85
2024-01-08T09:56:33.070Z,68.53
2024-01-08T10:02:26.872Z,68.79
2024-01-08T10:09:58.588Z,68.76
2024-01-08T10:21:28.878Z,67.47
2024-01-08T10:29:08.921Z,67.36
2024-01-08T10:36:52.459Z,67.31
2024-01-08T10:39:51.352Z,66.81
2024-01-08T10:42:25.637Z,66.57
2024-01-08T10:44:58.934Z,66.68
2024-01-08T10:48:41.659Z,66.76
2024-01-08T10:51:22.167Z,66.98
2024-01-08T10:53:51.356Z,66.72
2024-01-08T10:56:56.868Z,66.79
2024-01-08T11:00:03.474Z,67.84
2024-01-08T11:02:44.644Z,70.99
2024-01-08T11:10:17.468Z,89.25
2024-01-08T11:13:15.801Z,89.49
2024-01-08T11:20:08.354Z,78.48
2024-01-08T11:24:06.103Z,69.83
2024-01-08T11:27:25.898Z,66.87
2024-01-08T11:30:22.107Z,65.22
2024-01-08T11:33:01.963Z,64.77
2024-01-08T11:35:44.616Z,64.79
2024-01-08T11:38:33.513Z,65.69
2024-01-08T11:41:09.869Z,65.18
2024-01-08T11:43:47.465Z,65.30
2024-01-08T11:46:25.024Z,66.16
2024-01-08T11:48:54.778Z,66.15
2024-01-08T11:51:35.422Z,65.20
2024-01-08T11:54:17.316Z,63.52
2024-01-08T11:56:49.111Z,65.11
2024-01-08T11:59:31.747Z,65.27
2024-01-08T12:02:18.481Z,63.99
2024-01-08T12:05:01.248Z,65.67
2024-01-08T12:07:31.967Z,77.36
2024-01-08T12:10:05.697Z,73.85
2024-01-08T12:12:33.966Z,72.76
2024-01-08T12:15:03.788Z,74.52
2024-01-08T12:17:33.073Z,72.53
2024-01-08T12:20:04.947Z,68.16
2024-01-08T12:22:34.888Z,70.75
2024-01-08T12:25:07.599Z,61.44
2024-01-08T12:27:35.968Z,59.27
2024-01-08T12:30:05.205Z,58.26
2024-01-08T12:32:33.920Z,59.25
2024-01-08T12:35:06.700Z,60.44
2024-01-08T12:37:35.503Z,60.81
2024-01-08T12:40:05.981Z,60.67
2024-01-08T12:42:36.088Z,61.96
2024-01-08T12:45:06.925Z,60.95
2024-01-08T12:47:35.641Z,60.98
2024-01-08T12:50:04.373Z,61.41
2024-01-08T12:52:33.061Z,62.23
2024-01-08T12:55:01.944Z,61.90
2024-01-08T12:57:33.814Z,62.97
2024-01-08T13:00:02.310Z,63.41
2024-01-08T13:02:34.235Z,63.14
2024-01-08T13:05:06.297Z,64.52
2024-01-08T13:07:36.015Z,64.54
2024-01-08T13:10:07.155Z,64.10
2024-01-08T13:12:37.739Z,63.39
2024-01-08T13:15:07.789Z,62.80
2024-01-08T13:17:36.602Z,63.14
2024-01-08T13:20:13.989Z,63.84
2024-01-08T13:22:50.658Z,64.00
2024-01-08T13:25:19.129Z,64.25
2024-01-08T13:27:47.960Z,64.46
2024-01-08T13:30:16.513Z,64.79
2024-01-08T13:32:44.858Z,64.96
2024-01-08T13:35:13.833Z,64.80
2024-01-08T13:37:42.640Z,64.80
2024-01-08T13:40:11.648Z,65.65
2024-01-08T13:42:40.281Z,65.54
2024-01-08T13:45:09.955Z,65.25
2024-01-08T13:47:38.657Z,64.90
2024-01-08T13:50:08.870Z,65.35
2024-01-08T13:52:37.568Z,65.37
2024-01-08T13:55:06.696Z,65.22
2024-01-08T13:57:34.870Z,64.92
2024-01-08T14:00:06.971Z,65.00
2024-01-08T14:02:36.182Z,64.91
2024-01-08T14:05:04.681Z,65.20
2024-01-08T14:07:33.145Z,65.82
2024-01-08T14:10:01.243Z,64.97
2024-01-08T14:12:29.942Z,65.44
2024-01-08T14:14:58.492Z,66.23
2024-01-08T14:17:26.665Z,65.79
2024-01-08T14:19:55.015Z,65.95
2024-01-08T14:22:24.253Z,66.21
2024-01-08T14:24:53.242Z,65.38
2024-01-08T14:27:21.501Z,64.98
2024-01-08T14:29:51.755Z,64.87
2024-01-08T14:32:22.963Z,64.88
2024-01-08T14:34:51.891Z,64.75
2024-01-08T14:37:20.144Z,64.49
2024-01-08T14:39:48.361Z,64.77
2024-01-08T14:42:16.536Z,64.94
2024-01-08T14:44:44.863Z,64.88
2024-01-08T14:47:13.147Z,64.85
2024-01-08T14:49:41.545Z,65.00
2024-01-08T14:52:10.337Z,64.89
2024-01-08T14:54:38.720Z,65.30
2024-01-08T14:57:07.894Z,65.03
2024-01-08T14:59:37.129Z,65.22
2024-01-08T15:02:06.663Z,64.91
2024-01-08T15:04:35.082Z,65.70
2024-01-08T15:07:08.836Z,65.68
2024-01-08T15:09:37.007Z,65.92
2024-01-08T15:12:05.461Z,66.16
2024-01-08T15:14:33.720Z,65.98
2024-01-08T15:17:02.965Z,65.82
2024-01-08T15:19:31.162Z,65.72
2024-01-08T15:21:59.635Z,65.82
2024-01-08T15:24:30.569Z,65.72
2024-01-08T15:26:58.873Z,65.49
2024-01-08T15:29:27.006Z,65.57
2024-01-08T15:31:55.190Z,65.38
2024-01-08T15:34:23.306Z,65.33
2024-01-08T15:36:52.107Z,65.00
2024-01-08T15:39:20.518Z,65.42
2024-01-08T15:41:48.774Z,65.51
2024-01-08T15:44:16.930Z,66.01
2024-01-08T15:46:45.329Z,65.74
2024-01-08T15:49:13.584Z,66.19
2024-01-08T15:51:41.761Z,66.26
2024-01-08T15:54:10.037Z,66.63
2024-01-08T15:56:40.094Z,66.41
2024-01-08T15:59:09.138Z,66.57
2024-01-08T16:01:39.181Z,66.91
2024-01-08T16:04:07.421Z,66.86
2024-01-08T16:06:35.589Z,66.30
2024-01-08T16:09:04.039Z,66.54
2024-01-08T16:11:32.237Z,66.49
2024-01-08T16:14:00.535Z,66.47
2024-01-08T16:16:28.799Z,65.88
2024-01-08T16:18:56.998Z,65.32
2024-01-08T16:21:26.216Z,65.41
2024-01-08T16:23:59.438Z,65.38
2024-01-08T16:26:38.034Z,65.64
2024-01-08T16:29:06.175Z,65.01
2024-01-08T16:31:34.491Z,65.01
2024-01-08T16:34:03.022Z,65.66
2024-01-08T16:36:31.549Z,66.21
2024-01-08T16:39:00.586Z,66.44
2024-01-08T16:41:28.973Z,66.39
2024-01-08T16:43:57.139Z,66.36
2024-01-08T16:46:25.802Z,66.48
2024-01-08T16:48:54.308Z,66.48
2024-01-08T16:51:22.552Z,66.34
2024-01-08T16:53:50.853Z,66.07
2024-01-08T16:56:19.049Z,65.41
2024-01-08T16:58:47.313Z,65.43
2024-01-08T17:01:16.327Z,66.04
2024-01-08T17:03:46.526Z,65.09
2024-01-08T17:06:15.117Z,65.25
2024-01-08T17:08:43.301Z,65.30
2024-01-08T17:11:11.861Z,65.80
2024-01-08T17:13:40.177Z,65.30
2024-01-08T17:16:08.228Z,65.82
2024-01-08T17:18:36.512Z,66.72
2024-01-08T17:21:05.301Z,67.34
2024-01-08T17:23:33.666Z,66.46
2024-01-08T17:26:01.970Z,64.99
2024-01-08T17:28:30.277Z,65.74
2024-01-08T17:30:58.586Z,65.59
2024-01-08T17:33:27.174Z,65.46
2024-01-08T17:35:55.540Z,65.64
2024-01-08T17:38:24.285Z,65.99
2024-01-08T17:40:52.759Z,66.64
2024-01-08T17:43:20.840Z,66.97
2024-01-08T17:45:48.820Z,66.77
2024-01-08T17:48:18.171Z,67.50
2024-01-08T17:50:46.432Z,67.52
2024-01-08T17:53:14.816Z,67.48
2024-01-08T17:55:42.990Z,66.89
2024-01-08T17:58:12.868Z,67.07
2024-01-08T18:00:40.969Z,66.77
2024-01-08T18:03:09.016Z,67.22
2024-01-08T18:05:39.618Z,67.31
2024-01-08T18:08:08.146Z,67.09
2024-01-08T18:10:36.454Z,67.53
2024-01-08T18:13:04.943Z,67.69
2024-01-08T18:15:33.097Z,67.60
2024-01-08T18:18:01.449Z,67.40
2024-01-08T18:20:31.098Z,67.69
2024-01-08T18:22:59.513Z,67.36
2024-01-08T18:25:27.774Z,67.22
2024-01-08T18:27:55.843Z,67.34
2024-01-08T18:30:24.253Z,67.31
2024-01-08T18:32:52.456Z,66.89
2024-01-08T18:35:22.118Z,66.91
2024-01-08T18:37:50.366Z,66.45
2024-01-08T18:40:18.670Z,66.71
2024-01-08T18:42:46.726Z,66.18
2024-01-08T18:45:16.558Z,66.23
2024-01-08T18:47:44.967Z,66.39
2024-01-08T18:50:13.294Z,66.10
2024-01-08T18:52:41.469Z,65.77
2024-01-08T18:55:09.916Z,65.57
2024-01-08T18:57:37.982Z,66.00
2024-01-08T19:00:06.862Z,65.81
2024-01-08T19:02:35.141Z,66.52
2024-01-08T19:05:05.140Z,66.96
2024-01-08T19:07:33.708Z,67.07
2024-01-08T19:10:01.896Z,67.69
2024-01-08T19:12:31.137Z,67.55
2024-01-08T19:14:59.220Z,67.71
2024-01-08T19:17:27.520Z,67.20
2024-01-08T19:19:56.469Z,67.14
2024-01-08T19:22:26.851Z,66.86
2024-01-08T19:24:55.019Z,66.66
2024-01-08T19:27:24.792Z,66.90
2024-01-08T19:29:54.246Z,66.08
2024-01-08T19:32:22.733Z,65.84
2024-01-08T19:34:50.929Z,66.51
2024-01-08T19:37:18.946Z,66.82
2024-01-08T19:39:47.194Z,66.92
2024-01-08T19:42:15.493Z,66.32
2024-01-08T19:44:44.077Z,66.74
2024-01-08T19:47:12.405Z,66.07
2024-01-08T19:49:40.792Z,65.80
2024-01-08T19:52:09.138Z,65.79
2024-01-08T19:54:37.260Z,65.37
2024-01-08T19:57:08.600Z,65.75
2024-01-08T19:59:36.760Z,65.88
2024-01-08T20:02:07.058Z,66.20
2024-01-08T20:04:35.209Z,65.51
2024-01-08T20:07:03.744Z,66.07
2024-01-08T20:09:32.102Z,66.05
2024-01-08T20:12:01.949Z,66.17
2024-01-08T20:14:32.337Z,66.19
2024-01-08T20:17:01.105Z,66.50
2024-01-08T20:19:29.473Z,66.69
2024-01-08T20:21:57.704Z,66.63
2024-01-08T20:24:25.821Z,67.05
2024-01-08T20:26:53.971Z,66.41
2024-01-08T20:29:22.316Z,65.99
2024-01-08T20:31:52.298Z,65.81
2024-01-08T20:34:20.568Z,66.32
2024-01-08T20:36:49.045Z,66.62
2024-01-08T20:39:17.114Z,66.54
2024-01-08T20:41:45.305Z,67.02
2024-01-08T20:44:13.507Z,67.53
2024-01-08T20:46:41.937Z,66.63
2024-01-08T20:49:10.069Z,67.35
2024-01-08T20:51:38.146Z,66.95
2024-01-08T20:54:06.278Z,66.14
2024-01-08T20:56:35.569Z,66.89
2024-01-08T20:59:04.381Z,67.00
2024-01-08T21:01:32.521Z,66.51
2024-01-08T21:04:00.817Z,66.44
2024-01-08T21:06:29.097Z,66.16
2024-01-08T21:08:58.069Z,65.45
2024-01-08T21:11:26.553Z,65.64
2024-01-08T21:13:56.861Z,65.59
2024-01-08T21:16:25.367Z,65.81
2024-01-08T21:18:55.223Z,66.04
2024-01-08T21:21:23.707Z,65.56
2024-01-08T21:23:51.753Z,66.61
2024-01-08T21:26:19.848Z,66.13
2024-01-08T21:28:47.912Z,65.83
2024-01-08T21:31:17.182Z,66.19
2024-01-08T21:33:47.609Z,65.68
2024-01-08T21:36:15.854Z,65.88
2024-01-08T21:38:44.231Z,65.82
2024-01-08T21:41:13.205Z,65.32
2024-01-08T21:43:41.976Z,65.95
2024-01-08T21:46:10.336Z,64.52
2024-01-08T21:48:42.698Z,65.24
2024-01-08T21:51:12.680Z,64.30
2024-01-08T21:53:41.780Z,64.33
2024-01-08T21:56:10.113Z,64.69
2024-01-08T21:58:38.597Z,65.10
2024-01-08T22:01:09.850Z,65.13
2024-01-08T22:03:38.139Z,65.17
2024-01-08T22:06:06.678Z,65.00
2024-01-08T22:08:35.724Z,65.58
2024-01-08T22:11:04.113Z,65.67
2024-01-08T22:13:32.299Z,65.11
2024-01-08T22:16:00.461Z,64.78
2024-01-08T22:18:28.942Z,65.11
2024-01-08T22:20:57.745Z,64.05
2024-01-08T22:23:26.288Z,64.11
2024-01-08T22:25:57.080Z,64.88
2024-01-08T22:28:27.393Z,65.02
2024-01-08T22:30:55.695Z,64.89
2024-01-08T22:33:24.044Z,64.72
2024-01-08T22:35:52.440Z,63.90
2024-01-08T22:38:20.733Z,64.22
2024-01-08T22:40:49.851Z,65.01
2024-01-08T22:43:17.958Z,64.19
2024-01-08T22:45:46.115Z,64.57
2024-01-08T22:48:14.570Z,64.46
2024-01-08T22:50:42.934Z,64.78
2024-01-08T22:53:11.408Z,64.27
2024-01-08T22:55:43.318Z,64.96
2024-01-08T22:58:11.776Z,63.83
2024-01-08T23:00:40.329Z,64.34
2024-01-08T23:03:11.120Z,64.25
2024-01-08T23:05:41.624Z,63.62
2024-01-08T23:08:12.701Z,63.52
2024-01-08T23:10:41.053Z,63.63
2024-01-08T23:13:09.393Z,62.07
2024-01-08T23:15:38.444Z,62.07
2024-01-08T23:18:07.608Z,61.53
2024-01-08T23:20:36.309Z,62.09
2024-01-08T23:23:04.881Z,61.86
2024-01-08T23:25:33.130Z,61.66
2024-01-08T23:28:01.246Z,62.65
2024-01-08T23:30:29.699Z,63.04
2024-01-08T23:32:57.970Z,62.84
2024-01-08T23:35:26.190Z,63.07
2024-01-08T23:37:54.620Z,63.76
2024-01-08T23:40:22.640Z,63.53
2024-01-08T23:42:50.769Z,63.44
2024-01-08T23:45:18.782Z,63.45
2024-01-08T23:47:47.157Z,63.42
2024-01-08T23:50:15.949Z,63.70
2024-01-08T23:52:44.357Z,63.29
2024-01-08T23:55:13.238Z,62.11
2024-01-08T23:57:41.340Z,62.75
